createdAt,value
2018-01-14T00:00:18.558Z,5.3
2018-01-14T00:01:18.820Z,5.35
2018-01-14T00:02:18.561Z,5.32
2018-01-14T00:03:18.856Z,5.29
2018-01-14T00:04:18.562Z,5.38
2018-01-14T00:05:18.315Z,5.32
2018-01-14T00:06:18.359Z,5.28
2018-01-14T00:07:18.348Z,5.32
2018-01-14T00:08:18.640Z,5.28
2018-01-14T00:09:18.644Z,5.33
2018-01-14T00:10:18.930Z,5.29
2018-01-14T00:11:18.697Z,5.32
2018-01-14T00:12:18.722Z,5.28
2018-01-14T00:13:18.968Z,5.26
2018-01-14T00:14:18.419Z,5.26
2018-01-14T00:15:19.042Z,5.29
2018-01-14T00:16:18.815Z,5.2
2018-01-14T00:17:19.015Z,5.21
2018-01-14T00:18:18.992Z,5.23
2018-01-14T00:19:19.054Z,5.29
2018-01-14T00:20:18.738Z,5.18
2018-01-14T00:21:19.075Z,5.29
2018-01-14T00:22:18.809Z,5.18
2018-01-14T00:23:18.547Z,5.18
2018-01-14T00:24:18.800Z,5.23
2018-01-14T00:25:18.809Z,5.2
2018-01-14T00:26:18.788Z,5.25
2018-01-14T00:27:18.850Z,5.15
2018-01-14T00:28:18.894Z,5.25
2018-01-14T00:29:19.172Z,5.23
2018-01-14T00:30:19.169Z,5.15
2018-01-14T00:31:19.180Z,5.15
2018-01-14T00:32:18.866Z,5.26
2018-01-14T00:33:18.915Z,5.23
2018-01-14T00:34:18.934Z,5.21
2018-01-14T00:35:18.923Z,5.25
2018-01-14T00:36:18.934Z,5.18
2018-01-14T00:37:19.251Z,5.21
2018-01-14T00:38:18.913Z,5.18
2018-01-14T00:39:18.939Z,5.2
2018-01-14T00:40:18.700Z,5.17
2018-01-14T00:41:19.334Z,5.15
2018-01-14T00:42:19.019Z,5.21
2018-01-14T00:43:19.019Z,5.12
2018-01-14T00:44:19.011Z,5.15
2018-01-14T00:45:19.005Z,5.15
2018-01-14T00:46:19.344Z,5.21
2018-01-14T00:47:19.340Z,5.11
2018-01-14T00:48:19.027Z,5.18
2018-01-14T00:49:19.104Z,5.12
2018-01-14T00:50:19.098Z,5.17
2018-01-14T00:51:19.320Z,5.15
2018-01-14T00:52:19.398Z,5.11
2018-01-14T00:53:19.416Z,5.08
2018-01-14T00:54:18.803Z,5.12
2018-01-14T00:55:18.812Z,5.1
2018-01-14T00:56:19.410Z,5.08
2018-01-14T00:57:19.141Z,5.08
2018-01-14T00:58:19.119Z,5.08
2018-01-14T00:59:19.166Z,5.07
2018-01-14T01:00:19.171Z,5.12
2018-01-14T01:01:19.193Z,5.07
2018-01-14T01:02:18.884Z,5.07
2018-01-14T01:03:19.171Z,5.08
2018-01-14T01:04:19.504Z,5.07
2018-01-14T01:05:18.946Z,5.02
2018-01-14T01:06:19.098Z,5.04
2018-01-14T01:07:19.248Z,5.05
2018-01-14T01:08:19.255Z,5.02
2018-01-14T01:09:19.547Z,5
2018-01-14T01:10:18.988Z,5
2018-01-14T01:11:19.566Z,5.07
2018-01-14T01:12:19.030Z,5.07
2018-01-14T01:13:19.311Z,5.07
2018-01-14T01:14:19.062Z,5.02
2018-01-14T01:15:19.349Z,5.07
2018-01-14T01:16:19.367Z,5.1
2018-01-14T01:17:19.592Z,5.1
2018-01-14T01:18:19.356Z,5.07
2018-01-14T01:19:19.377Z,5.08
2018-01-14T01:20:19.344Z,5.04
2018-01-14T01:21:19.406Z,5.08
2018-01-14T01:22:19.160Z,5.02
2018-01-14T01:23:19.442Z,5.05
2018-01-14T01:24:19.421Z,5.02
2018-01-14T01:25:19.717Z,5.07
2018-01-14T01:26:19.417Z,5.04
2018-01-14T01:27:19.436Z,5.05
2018-01-14T01:28:19.434Z,5.02
2018-01-14T01:29:19.788Z,5.08
2018-01-14T01:30:19.490Z,5.07
2018-01-14T01:31:19.815Z,5
2018-01-14T01:32:19.834Z,5.08
2018-01-14T01:33:19.499Z,5.08
2018-01-14T01:34:19.535Z,5.07
2018-01-14T01:35:19.529Z,5.05
2018-01-14T01:36:19.980Z,5.05
2018-01-14T01:37:19.528Z,5.07
2018-01-14T01:38:19.562Z,5.05
2018-01-14T01:39:19.877Z,5.05
2018-01-14T01:40:19.548Z,5.04
2018-01-14T01:41:19.623Z,4.99
2018-01-14T01:42:19.876Z,5.05
2018-01-14T01:43:19.933Z,4.97
2018-01-14T01:44:19.368Z,5.05
2018-01-14T01:45:19.633Z,5.02
2018-01-14T01:46:19.962Z,5.05
2018-01-14T01:47:19.993Z,4.97
2018-01-14T01:48:19.648Z,5
2018-01-14T01:49:19.417Z,5.02
2018-01-14T01:50:19.661Z,4.99
2018-01-14T01:51:19.690Z,4.92
2018-01-14T01:52:19.418Z,5.02
2018-01-14T01:53:20.011Z,4.97
2018-01-14T01:54:19.712Z,4.97
2018-01-14T01:55:19.474Z,4.96
2018-01-14T01:56:19.752Z,4.9
2018-01-14T01:57:20.031Z,4.96
2018-01-14T01:58:20.048Z,4.99
2018-01-14T01:59:20.050Z,4.97
2018-01-14T02:00:19.503Z,4.96
2018-01-14T02:01:20.102Z,5.05
2018-01-14T02:02:19.793Z,5.02
2018-01-14T02:03:19.513Z,4.92
2018-01-14T02:04:19.803Z,4.92
2018-01-14T02:05:20.113Z,4.89
2018-01-14T02:06:19.607Z,4.87
2018-01-14T02:07:20.146Z,5.02
2018-01-14T02:08:19.593Z,4.9
2018-01-14T02:09:19.954Z,4.9
2018-01-14T02:10:20.194Z,5.04
2018-01-14T02:11:20.152Z,4.99
2018-01-14T02:12:19.610Z,4.89
2018-01-14T02:13:19.894Z,4.9
2018-01-14T02:14:19.941Z,5.02
2018-01-14T02:15:19.965Z,4.96
2018-01-14T02:16:20.221Z,4.89
2018-01-14T02:17:20.210Z,4.93
2018-01-14T02:18:20.240Z,4.94
2018-01-14T02:19:19.948Z,4.9
2018-01-14T02:20:19.755Z,4.92
2018-01-14T02:21:20.306Z,4.94
2018-01-14T02:22:20.013Z,4.96
2018-01-14T02:23:19.722Z,5.07
2018-01-14T02:24:20.305Z,4.97
2018-01-14T02:25:20.043Z,4.94
2018-01-14T02:26:20.347Z,5.08
2018-01-14T02:27:19.904Z,4.89
2018-01-14T02:28:19.785Z,4.97
2018-01-14T02:29:20.094Z,5.07
2018-01-14T02:30:19.819Z,4.99
2018-01-14T02:31:20.392Z,5.04
2018-01-14T02:32:20.355Z,4.89
2018-01-14T02:33:20.151Z,5
2018-01-14T02:34:20.420Z,4.99
2018-01-14T02:35:20.496Z,5.05
2018-01-14T02:36:20.397Z,5.07
2018-01-14T02:37:20.167Z,4.94
2018-01-14T02:38:20.142Z,4.99
2018-01-14T02:39:20.203Z,4.89
2018-01-14T02:40:19.896Z,4.87
2018-01-14T02:41:19.935Z,4.9
2018-01-14T02:42:20.495Z,4.94
2018-01-14T02:43:19.937Z,5
2018-01-14T02:44:20.522Z,4.94
2018-01-14T02:45:20.471Z,4.87
2018-01-14T02:46:20.584Z,4.96
2018-01-14T02:47:20.015Z,4.84
2018-01-14T02:48:20.261Z,4.92
2018-01-14T02:49:20.319Z,4.93
2018-01-14T02:50:20.017Z,4.93
2018-01-14T02:51:20.337Z,4.92
2018-01-14T02:52:20.342Z,4.87
2018-01-14T02:53:20.608Z,4.84
2018-01-14T02:54:20.589Z,4.8
2018-01-14T02:55:20.832Z,4.87
2018-01-14T02:56:20.645Z,4.86
2018-01-14T02:57:20.540Z,4.84
2018-01-14T02:58:20.632Z,4.86
2018-01-14T02:59:20.397Z,4.86
2018-01-14T03:00:20.637Z,4.86
2018-01-14T03:01:20.427Z,4.78
2018-01-14T03:02:20.467Z,4.87
2018-01-14T03:03:20.163Z,4.84
2018-01-14T03:04:20.442Z,4.87
2018-01-14T03:05:20.432Z,4.87
2018-01-14T03:06:20.699Z,4.82
2018-01-14T03:07:20.655Z,4.7
2018-01-14T03:08:20.504Z,4.67
2018-01-14T03:09:20.203Z,4.7
2018-01-14T03:10:20.231Z,4.75
2018-01-14T03:11:20.820Z,4.7
2018-01-14T03:12:20.788Z,4.7
2018-01-14T03:13:20.512Z,4.74
2018-01-14T03:14:20.282Z,4.73
2018-01-14T03:15:20.511Z,4.74
2018-01-14T03:16:20.522Z,4.71
2018-01-14T03:17:20.288Z,4.73
2018-01-14T03:18:20.558Z,4.73
2018-01-14T03:19:20.574Z,4.73
2018-01-14T03:20:20.838Z,4.67
2018-01-14T03:21:20.901Z,4.74
2018-01-14T03:22:20.928Z,4.7
2018-01-14T03:23:20.885Z,4.73
2018-01-14T03:24:20.657Z,4.67
2018-01-14T03:25:20.364Z,4.7
2018-01-14T03:26:20.911Z,4.7
2018-01-14T03:27:20.668Z,4.7
2018-01-14T03:28:20.654Z,4.68
2018-01-14T03:29:20.379Z,4.71
2018-01-14T03:30:20.998Z,4.7
2018-01-14T03:31:20.707Z,4.7
2018-01-14T03:32:20.430Z,4.71
2018-01-14T03:33:21.053Z,4.71
2018-01-14T03:34:21.051Z,4.71
2018-01-14T03:35:20.486Z,4.74
2018-01-14T03:36:21.020Z,4.7
2018-01-14T03:37:21.052Z,4.67
2018-01-14T03:38:20.810Z,4.7
2018-01-14T03:39:20.777Z,4.7
2018-01-14T03:40:20.823Z,4.7
2018-01-14T03:41:20.813Z,4.73
2018-01-14T03:42:20.818Z,4.59
2018-01-14T03:43:20.553Z,4.7
2018-01-14T03:44:21.093Z,4.74
2018-01-14T03:45:21.105Z,4.62
2018-01-14T03:46:21.110Z,4.62
2018-01-14T03:47:21.193Z,4.55
2018-01-14T03:48:21.119Z,4.66
2018-01-14T03:49:21.194Z,4.53
2018-01-14T03:50:20.902Z,4.62
2018-01-14T03:51:21.217Z,4.56
2018-01-14T03:52:21.231Z,4.6
2018-01-14T03:53:20.953Z,4.59
2018-01-14T03:54:21.178Z,4.52
2018-01-14T03:55:21.090Z,4.58
2018-01-14T03:56:21.241Z,4.59
2018-01-14T03:57:21.259Z,4.58
2018-01-14T03:58:21.229Z,4.58
2018-01-14T03:59:20.711Z,4.62
2018-01-14T04:00:20.709Z,4.58
2018-01-14T04:01:21.025Z,4.62
2018-01-14T04:02:20.739Z,4.62
2018-01-14T04:03:20.996Z,4.58
2018-01-14T04:04:20.783Z,4.58
2018-01-14T04:05:20.769Z,4.56
2018-01-14T04:06:21.307Z,4.52
2018-01-14T04:07:21.311Z,4.52
2018-01-14T04:08:21.054Z,4.55
2018-01-14T04:09:21.054Z,4.5
2018-01-14T04:10:21.098Z,4.53
2018-01-14T04:11:21.104Z,4.49
2018-01-14T04:12:20.829Z,4.5
2018-01-14T04:13:20.870Z,4.48
2018-01-14T04:14:20.874Z,4.59
2018-01-14T04:15:21.111Z,4.5
2018-01-14T04:16:21.396Z,4.5
2018-01-14T04:17:21.141Z,4.55
2018-01-14T04:18:21.426Z,4.42
2018-01-14T04:19:21.469Z,4.52
2018-01-14T04:20:21.448Z,4.5
2018-01-14T04:21:21.191Z,4.5
2018-01-14T04:22:20.939Z,4.5
2018-01-14T04:23:21.284Z,4.45
2018-01-14T04:24:20.949Z,4.48
2018-01-14T04:25:21.494Z,4.45
2018-01-14T04:26:20.998Z,4.48
2018-01-14T04:27:21.293Z,4.49
2018-01-14T04:28:20.974Z,4.49
2018-01-14T04:29:21.299Z,4.42
2018-01-14T04:30:21.608Z,4.48
2018-01-14T04:31:21.317Z,4.41
2018-01-14T04:32:21.328Z,4.53
2018-01-14T04:33:21.341Z,4.44
2018-01-14T04:34:21.324Z,4.4
2018-01-14T04:35:21.307Z,4.5
2018-01-14T04:36:21.625Z,4.53
2018-01-14T04:37:21.419Z,4.42
2018-01-14T04:38:21.358Z,4.38
2018-01-14T04:39:21.688Z,4.5
2018-01-14T04:40:21.391Z,4.42
2018-01-14T04:41:21.409Z,4.49
2018-01-14T04:42:21.688Z,4.41
2018-01-14T04:43:21.283Z,4.44
2018-01-14T04:44:21.429Z,4.44
2018-01-14T04:45:21.439Z,4.42
2018-01-14T04:46:21.694Z,4.49
2018-01-14T04:47:21.161Z,4.44
2018-01-14T04:48:21.792Z,4.42
2018-01-14T04:49:21.733Z,4.41
2018-01-14T04:50:21.519Z,4.37
2018-01-14T04:51:21.490Z,4.35
2018-01-14T04:52:21.538Z,4.48
2018-01-14T04:53:21.495Z,4.41
2018-01-14T04:54:21.836Z,4.38
2018-01-14T04:55:21.699Z,4.41
2018-01-14T04:56:21.587Z,4.34
2018-01-14T04:57:21.576Z,4.45
2018-01-14T04:58:21.849Z,4.4
2018-01-14T04:59:21.589Z,4.35
2018-01-14T05:00:21.840Z,4.41
2018-01-14T05:01:21.298Z,4.48
2018-01-14T05:02:21.624Z,4.41
2018-01-14T05:03:21.636Z,4.45
2018-01-14T05:04:21.353Z,4.4
2018-01-14T05:05:21.877Z,4.45
2018-01-14T05:06:21.648Z,4.42
2018-01-14T05:07:21.677Z,4.4
2018-01-14T05:08:21.911Z,4.41
2018-01-14T05:09:21.654Z,4.4
2018-01-14T05:10:21.707Z,4.31
2018-01-14T05:11:21.734Z,4.38
2018-01-14T05:12:21.948Z,4.37
2018-01-14T05:13:21.757Z,4.37
2018-01-14T05:14:21.702Z,4.32
2018-01-14T05:15:21.977Z,4.35
2018-01-14T05:16:22.049Z,4.32
2018-01-14T05:17:21.741Z,4.4
2018-01-14T05:18:21.925Z,4.3
2018-01-14T05:19:21.497Z,4.26
2018-01-14T05:20:21.749Z,4.3
2018-01-14T05:21:22.182Z,4.3
2018-01-14T05:22:21.936Z,4.28
2018-01-14T05:23:21.844Z,4.26
2018-01-14T05:24:21.826Z,4.3
2018-01-14T05:25:21.536Z,4.26
2018-01-14T05:26:21.831Z,4.26
2018-01-14T05:27:21.833Z,4.24
2018-01-14T05:28:21.837Z,4.35
2018-01-14T05:29:21.893Z,4.19
2018-01-14T05:30:21.889Z,4.22
2018-01-14T05:31:21.890Z,4.22
2018-01-14T05:32:22.187Z,4.19
2018-01-14T05:33:22.209Z,4.16
2018-01-14T05:34:21.949Z,4.2
2018-01-14T05:35:22.201Z,4.24
2018-01-14T05:36:21.961Z,4.22
2018-01-14T05:37:22.352Z,4.22
2018-01-14T05:38:22.362Z,4.19
2018-01-14T05:39:21.971Z,4.19
2018-01-14T05:40:21.993Z,4.22
2018-01-14T05:41:22.009Z,4.24
2018-01-14T05:42:21.985Z,4.22
2018-01-14T05:43:21.732Z,4.16
2018-01-14T05:44:21.745Z,4.1
2018-01-14T05:45:22.064Z,4.16
2018-01-14T05:46:21.768Z,4.19
2018-01-14T05:47:22.064Z,4.06
2018-01-14T05:48:22.389Z,4.19
2018-01-14T05:49:21.758Z,4.19
2018-01-14T05:50:21.807Z,4.19
2018-01-14T05:51:22.409Z,4.2
2018-01-14T05:52:22.389Z,4.23
2018-01-14T05:53:22.445Z,4.19
2018-01-14T05:54:21.828Z,4.22
2018-01-14T05:55:21.996Z,4.19
2018-01-14T05:56:22.128Z,4.16
2018-01-14T05:57:22.149Z,4.12
2018-01-14T05:58:22.015Z,4.14
2018-01-14T05:59:22.171Z,4.1
2018-01-14T06:00:21.896Z,4.14
2018-01-14T06:01:22.464Z,4.06
2018-01-14T06:02:21.914Z,4.04
2018-01-14T06:03:22.219Z,4.04
2018-01-14T06:04:22.204Z,4.05
2018-01-14T06:05:22.290Z,4.04
2018-01-14T06:06:21.924Z,3.96
2018-01-14T06:07:23.024Z,3.94
2018-01-14T06:08:22.440Z,4.04
2018-01-14T06:09:22.499Z,3.94
2018-01-14T06:10:22.246Z,3.99
2018-01-14T06:11:21.998Z,4.02
2018-01-14T06:12:22.301Z,3.94
2018-01-14T06:13:22.322Z,3.99
2018-01-14T06:14:22.281Z,3.99
2018-01-14T06:15:22.602Z,4.02
2018-01-14T06:16:22.604Z,3.98
2018-01-14T06:17:22.381Z,3.94
2018-01-14T06:18:22.055Z,3.99
2018-01-14T06:19:22.351Z,3.96
2018-01-14T06:20:22.353Z,3.88
2018-01-14T06:21:22.107Z,3.92
2018-01-14T06:22:22.637Z,3.95
2018-01-14T06:23:22.093Z,3.92
2018-01-14T06:24:22.388Z,3.86
2018-01-14T06:25:22.141Z,3.98
2018-01-14T06:26:22.397Z,3.92
2018-01-14T06:27:22.406Z,3.92
2018-01-14T06:28:22.566Z,3.88
2018-01-14T06:29:22.471Z,3.88
2018-01-14T06:30:22.429Z,3.86
2018-01-14T06:31:22.181Z,3.86
2018-01-14T06:32:22.455Z,3.91
2018-01-14T06:33:22.626Z,3.88
2018-01-14T06:34:22.740Z,3.84
2018-01-14T06:35:22.249Z,3.84
2018-01-14T06:36:22.492Z,3.88
2018-01-14T06:37:22.507Z,3.86
2018-01-14T06:38:22.809Z,3.86
2018-01-14T06:39:22.821Z,3.91
2018-01-14T06:40:22.560Z,3.84
2018-01-14T06:41:22.856Z,3.84
2018-01-14T06:42:22.813Z,3.84
2018-01-14T06:43:22.748Z,3.87
2018-01-14T06:44:22.505Z,3.88
2018-01-14T06:45:22.632Z,3.91
2018-01-14T06:46:22.598Z,3.87
2018-01-14T06:47:22.598Z,3.86
2018-01-14T06:48:23.017Z,3.84
2018-01-14T06:49:22.940Z,3.8
2018-01-14T06:50:22.897Z,3.8
2018-01-14T06:51:22.359Z,3.84
2018-01-14T06:52:22.644Z,3.83
2018-01-14T06:53:22.961Z,3.83
2018-01-14T06:54:23.011Z,3.83
2018-01-14T06:55:22.978Z,3.8
2018-01-14T06:56:23.025Z,3.78
2018-01-14T06:57:23.197Z,3.8
2018-01-14T06:58:23.003Z,3.87
2018-01-14T06:59:22.719Z,3.8
2018-01-14T07:00:22.751Z,3.86
2018-01-14T07:01:22.783Z,3.78
2018-01-14T07:02:22.654Z,3.87
2018-01-14T07:03:22.471Z,3.83
2018-01-14T07:04:23.075Z,3.84
2018-01-14T07:05:23.070Z,3.81
2018-01-14T07:06:22.796Z,3.92
2018-01-14T07:07:23.089Z,3.76
2018-01-14T07:08:22.792Z,3.81
2018-01-14T07:09:23.144Z,3.84
2018-01-14T07:10:23.367Z,3.77
2018-01-14T07:11:22.935Z,3.81
2018-01-14T07:12:22.882Z,3.83
2018-01-14T07:13:22.898Z,3.95
2018-01-14T07:14:23.212Z,3.77
2018-01-14T07:15:22.903Z,3.91
2018-01-14T07:16:22.611Z,3.78
2018-01-14T07:17:22.925Z,3.87
2018-01-14T07:18:22.639Z,3.8
2018-01-14T07:19:22.624Z,3.81
2018-01-14T07:20:22.945Z,3.87
2018-01-14T07:21:22.684Z,3.88
2018-01-14T07:22:22.965Z,3.83
2018-01-14T07:23:22.984Z,3.86
2018-01-14T07:24:22.730Z,3.86
2018-01-14T07:25:23.257Z,3.92
2018-01-14T07:26:23.012Z,3.88
2018-01-14T07:27:23.251Z,3.86
2018-01-14T07:28:22.750Z,3.77
2018-01-14T07:29:23.457Z,3.91
2018-01-14T07:30:23.012Z,3.8
2018-01-14T07:31:23.067Z,3.78
2018-01-14T07:32:23.003Z,3.84
2018-01-14T07:33:23.055Z,3.83
2018-01-14T07:34:22.810Z,3.8
2018-01-14T07:35:23.352Z,3.8
2018-01-14T07:36:23.103Z,3.95
2018-01-14T07:37:23.374Z,3.94
2018-01-14T07:38:23.384Z,3.81
2018-01-14T07:39:23.443Z,3.83
2018-01-14T07:40:22.811Z,3.81
2018-01-14T07:41:23.092Z,3.81
2018-01-14T07:42:22.865Z,3.86
2018-01-14T07:43:23.518Z,3.81
2018-01-14T07:44:23.161Z,3.87
2018-01-14T07:45:23.579Z,3.83
2018-01-14T07:46:23.189Z,3.8
2018-01-14T07:47:23.191Z,3.83
2018-01-14T07:48:23.199Z,3.77
2018-01-14T07:49:23.198Z,3.84
2018-01-14T07:50:23.187Z,3.83
2018-01-14T07:51:23.238Z,3.77
2018-01-14T07:52:23.472Z,3.83
2018-01-14T07:53:23.227Z,3.84
2018-01-14T07:54:22.973Z,3.94
2018-01-14T07:55:23.290Z,3.81
2018-01-14T07:56:23.279Z,3.87
2018-01-14T07:57:23.283Z,3.87
2018-01-14T07:58:23.309Z,3.86
2018-01-14T07:59:23.639Z,3.92
2018-01-14T08:00:23.026Z,3.86
2018-01-14T08:01:23.281Z,3.92
2018-01-14T08:02:23.297Z,3.88
2018-01-14T08:03:23.045Z,3.98
2018-01-14T08:04:23.658Z,3.94
2018-01-14T08:05:23.379Z,4.05
2018-01-14T08:06:23.437Z,3.88
2018-01-14T08:07:23.400Z,3.94
2018-01-14T08:08:23.402Z,3.94
2018-01-14T08:09:23.408Z,4.04
2018-01-14T08:10:23.666Z,3.98
2018-01-14T08:11:23.191Z,3.96
2018-01-14T08:12:23.390Z,3.98
2018-01-14T08:13:23.123Z,4.02
2018-01-14T08:14:23.704Z,4.05
2018-01-14T08:15:23.414Z,4.06
2018-01-14T08:16:23.234Z,4.02
2018-01-14T08:17:23.763Z,4.13
2018-01-14T08:18:23.757Z,3.99
2018-01-14T08:19:23.465Z,4.01
2018-01-14T08:20:23.818Z,4.06
2018-01-14T08:21:23.466Z,3.99
2018-01-14T08:22:23.238Z,4.08
2018-01-14T08:23:23.518Z,4.13
2018-01-14T08:24:23.836Z,4.04
2018-01-14T08:25:23.537Z,4.12
2018-01-14T08:26:23.563Z,4.12
2018-01-14T08:27:23.275Z,4.19
2018-01-14T08:28:23.541Z,4.17
2018-01-14T08:29:24.014Z,4.17
2018-01-14T08:30:23.558Z,4.2
2018-01-14T08:31:23.589Z,4.16
2018-01-14T08:32:23.603Z,4.16
2018-01-14T08:33:23.630Z,4.22
2018-01-14T08:34:23.331Z,4.22
2018-01-14T08:35:23.953Z,4.2
2018-01-14T08:36:23.329Z,4.16
2018-01-14T08:37:23.613Z,4.14
2018-01-14T08:38:23.964Z,4.26
2018-01-14T08:39:23.848Z,4.23
2018-01-14T08:40:23.693Z,4.16
2018-01-14T08:41:23.395Z,4.22
2018-01-14T08:42:23.437Z,4.22
2018-01-14T08:43:23.426Z,4.22
2018-01-14T08:44:23.742Z,4.2
2018-01-14T08:45:24.005Z,4.13
2018-01-14T08:46:23.719Z,4.17
2018-01-14T08:47:24.010Z,4.16
2018-01-14T08:48:24.057Z,4.22
2018-01-14T08:49:23.770Z,4.31
2018-01-14T08:50:24.013Z,4.23
2018-01-14T08:51:23.799Z,4.32
2018-01-14T08:52:23.822Z,4.24
2018-01-14T08:53:23.768Z,4.32
2018-01-14T08:54:24.054Z,4.35
2018-01-14T08:55:24.352Z,4.37
2018-01-14T08:56:23.822Z,4.31
2018-01-14T08:57:23.848Z,4.31
2018-01-14T08:58:23.844Z,4.31
2018-01-14T08:59:24.136Z,4.31
2018-01-14T09:00:23.556Z,4.26
2018-01-14T09:01:24.119Z,4.3
2018-01-14T09:02:23.593Z,4.32
2018-01-14T09:03:23.890Z,4.37
2018-01-14T09:04:23.887Z,4.34
2018-01-14T09:05:23.908Z,4.37
2018-01-14T09:06:23.895Z,4.42
2018-01-14T09:07:23.928Z,4.35
2018-01-14T09:08:24.182Z,4.4
2018-01-14T09:09:23.949Z,4.42
2018-01-14T09:10:24.232Z,4.48
2018-01-14T09:11:24.243Z,4.49
2018-01-14T09:12:23.956Z,4.48
2018-01-14T09:13:24.249Z,4.49
2018-01-14T09:14:24.279Z,4.41
2018-01-14T09:15:24.174Z,4.49
2018-01-14T09:16:24.041Z,4.48
2018-01-14T09:17:24.341Z,4.53
2018-01-14T09:18:24.056Z,4.52
2018-01-14T09:19:24.362Z,4.53
2018-01-14T09:20:24.061Z,4.55
2018-01-14T09:21:24.053Z,4.55
2018-01-14T09:22:24.332Z,4.62
2018-01-14T09:23:24.118Z,4.55
2018-01-14T09:24:24.381Z,4.56
2018-01-14T09:25:24.390Z,4.56
2018-01-14T09:26:24.115Z,4.66
2018-01-14T09:27:24.137Z,4.63
2018-01-14T09:28:24.382Z,4.63
2018-01-14T09:29:24.106Z,4.67
2018-01-14T09:30:24.491Z,4.66
2018-01-14T09:31:24.156Z,4.73
2018-01-14T09:32:24.187Z,4.71
2018-01-14T09:33:24.461Z,4.7
2018-01-14T09:34:23.879Z,4.71
2018-01-14T09:35:24.441Z,4.73
2018-01-14T09:36:24.213Z,4.84
2018-01-14T09:37:24.543Z,4.78
2018-01-14T09:38:24.191Z,4.82
2018-01-14T09:39:24.210Z,4.82
2018-01-14T09:40:24.322Z,4.8
2018-01-14T09:41:24.505Z,4.87
2018-01-14T09:42:24.544Z,4.97
2018-01-14T09:43:24.283Z,4.9
2018-01-14T09:44:24.599Z,4.96
2018-01-14T09:45:24.347Z,4.96
2018-01-14T09:46:24.619Z,4.94
2018-01-14T09:47:24.036Z,4.97
2018-01-14T09:48:24.341Z,5.05
2018-01-14T09:49:24.334Z,4.92
2018-01-14T09:50:24.310Z,4.93
2018-01-14T09:51:24.351Z,4.92
2018-01-14T09:52:24.075Z,4.94
2018-01-14T09:53:24.095Z,5
2018-01-14T09:54:24.664Z,5.05
2018-01-14T09:55:24.137Z,5.08
2018-01-14T09:56:24.459Z,5.11
2018-01-14T09:57:24.424Z,5.15
2018-01-14T09:58:24.419Z,5.17
2018-01-14T09:59:24.376Z,5.15
2018-01-14T10:00:24.162Z,5.15
2018-01-14T10:01:24.430Z,5.18
2018-01-14T10:02:24.463Z,5.23
2018-01-14T10:03:24.736Z,5.21
2018-01-14T10:04:24.444Z,5.23
2018-01-14T10:05:24.201Z,5.23
2018-01-14T10:06:24.529Z,5.2
2018-01-14T10:07:24.255Z,5.18
2018-01-14T10:08:24.236Z,5.23
2018-01-14T10:09:24.912Z,5.15
2018-01-14T10:10:24.546Z,5.26
2018-01-14T10:11:24.298Z,5.32
2018-01-14T10:12:24.846Z,5.28
2018-01-14T10:13:24.948Z,5.3
2018-01-14T10:14:24.547Z,5.35
2018-01-14T10:15:24.318Z,5.33
2018-01-14T10:16:24.566Z,5.3
2018-01-14T10:17:24.311Z,5.33
2018-01-14T10:18:24.313Z,5.33
2018-01-14T10:19:24.637Z,5.29
2018-01-14T10:20:24.349Z,5.35
2018-01-14T10:21:24.899Z,5.39
2018-01-14T10:22:24.625Z,5.39
2018-01-14T10:23:24.655Z,5.5
2018-01-14T10:24:24.671Z,5.41
2018-01-14T10:25:24.973Z,5.47
2018-01-14T10:26:24.755Z,5.54
2018-01-14T10:27:24.704Z,5.51
2018-01-14T10:28:24.962Z,5.53
2018-01-14T10:29:24.441Z,5.62
2018-01-14T10:30:24.737Z,5.59
2018-01-14T10:31:24.725Z,5.62
2018-01-14T10:32:24.784Z,5.64
2018-01-14T10:33:24.467Z,5.62
2018-01-14T10:34:24.511Z,5.61
2018-01-14T10:35:24.763Z,5.64
2018-01-14T10:36:24.803Z,5.71
2018-01-14T10:37:24.814Z,5.75
2018-01-14T10:38:24.836Z,5.79
2018-01-14T10:39:24.831Z,5.82
2018-01-14T10:40:24.843Z,5.79
2018-01-14T10:41:24.564Z,5.82
2018-01-14T10:42:25.162Z,5.8
2018-01-14T10:43:24.835Z,5.84
2018-01-14T10:44:24.858Z,5.91
2018-01-14T10:45:24.589Z,5.94
2018-01-14T10:46:24.935Z,5.87
2018-01-14T10:47:24.917Z,5.87
2018-01-14T10:48:24.631Z,5.91
2018-01-14T10:49:24.939Z,5.94
2018-01-14T10:50:25.212Z,5.93
2018-01-14T10:51:24.917Z,5.93
2018-01-14T10:52:24.695Z,5.97
2018-01-14T10:53:24.939Z,5.99
2018-01-14T10:54:24.999Z,6.02
2018-01-14T10:55:24.809Z,6.05
2018-01-14T10:56:24.703Z,5.99
2018-01-14T10:57:24.758Z,6.07
2018-01-14T10:58:24.746Z,6.05
2018-01-14T10:59:25.022Z,6.12
2018-01-14T11:00:24.756Z,6.12
2018-01-14T11:01:25.413Z,6.12
2018-01-14T11:02:24.786Z,6.2
2018-01-14T11:03:24.830Z,6.24
2018-01-14T11:04:25.105Z,6.28
2018-01-14T11:05:25.351Z,6.27
2018-01-14T11:06:25.411Z,6.36
2018-01-14T11:07:25.143Z,6.36
2018-01-14T11:08:25.126Z,6.36
2018-01-14T11:09:25.167Z,6.39
2018-01-14T11:10:25.166Z,6.33
2018-01-14T11:11:25.397Z,6.38
2018-01-14T11:12:24.857Z,6.45
2018-01-14T11:13:25.157Z,6.51
2018-01-14T11:14:25.209Z,6.52
2018-01-14T11:15:24.935Z,6.51
2018-01-14T11:16:24.932Z,6.54
2018-01-14T11:17:25.198Z,6.52
2018-01-14T11:18:25.228Z,6.59
2018-01-14T11:19:25.483Z,6.67
2018-01-14T11:20:24.964Z,6.66
2018-01-14T11:21:24.987Z,6.64
2018-01-14T11:22:25.593Z,6.6
2018-01-14T11:23:25.031Z,6.7
2018-01-14T11:24:25.297Z,6.7
2018-01-14T11:25:25.283Z,6.63
2018-01-14T11:26:25.635Z,6.66
2018-01-14T11:27:25.606Z,6.72
2018-01-14T11:28:25.376Z,6.72
2018-01-14T11:29:25.346Z,6.69
2018-01-14T11:30:25.093Z,6.75
2018-01-14T11:31:25.747Z,6.84
2018-01-14T11:32:25.665Z,6.75
2018-01-14T11:33:25.647Z,6.69
2018-01-14T11:34:25.117Z,6.74
2018-01-14T11:35:25.381Z,6.72
2018-01-14T11:36:25.549Z,6.79
2018-01-14T11:37:25.431Z,6.84
2018-01-14T11:38:25.759Z,6.84
2018-01-14T11:39:25.429Z,6.84
2018-01-14T11:40:25.787Z,6.87
2018-01-14T11:41:25.722Z,6.82
2018-01-14T11:42:25.793Z,6.87
2018-01-14T11:43:25.223Z,6.92
2018-01-14T11:44:25.508Z,6.95
2018-01-14T11:45:25.488Z,6.93
2018-01-14T11:46:25.501Z,6.89
2018-01-14T11:47:25.520Z,6.93
2018-01-14T11:48:25.859Z,6.92
2018-01-14T11:49:25.852Z,6.93
2018-01-14T11:50:25.584Z,6.92
2018-01-14T11:51:25.905Z,7.05
2018-01-14T11:52:25.574Z,7.06
2018-01-14T11:53:25.912Z,7.03
2018-01-14T11:54:25.929Z,7.06
2018-01-14T11:55:25.661Z,7.05
2018-01-14T11:56:25.618Z,7.03
2018-01-14T11:57:25.945Z,6.99
2018-01-14T11:58:25.945Z,7.05
2018-01-14T11:59:25.950Z,7.03
2018-01-14T12:00:25.934Z,7.06
2018-01-14T12:01:25.973Z,7.07
2018-01-14T12:02:25.981Z,7.14
2018-01-14T12:03:25.718Z,7.07
2018-01-14T12:04:25.739Z,7.11
2018-01-14T12:05:26.016Z,7.11
2018-01-14T12:06:25.800Z,7.17
2018-01-14T12:07:26.079Z,7.07
2018-01-14T12:08:25.773Z,7.18
2018-01-14T12:09:26.103Z,7.23
2018-01-14T12:10:26.073Z,7.25
2018-01-14T12:11:26.117Z,7.21
2018-01-14T12:12:26.105Z,7.21
2018-01-14T12:13:26.149Z,7.13
2018-01-14T12:14:25.555Z,7.17
2018-01-14T12:15:25.858Z,7.17
2018-01-14T12:16:26.184Z,7.15
2018-01-14T12:17:25.879Z,7.15
2018-01-14T12:18:25.591Z,7.14
2018-01-14T12:19:26.160Z,7.24
2018-01-14T12:20:25.900Z,7.2
2018-01-14T12:21:25.669Z,7.21
2018-01-14T12:22:26.184Z,7.29
2018-01-14T12:23:26.249Z,7.32
2018-01-14T12:24:26.273Z,7.32
2018-01-14T12:25:25.688Z,7.33
2018-01-14T12:26:25.976Z,7.31
2018-01-14T12:27:26.025Z,7.2
2018-01-14T12:28:26.043Z,7.24
2018-01-14T12:29:26.024Z,7.32
2018-01-14T12:30:26.059Z,7.28
2018-01-14T12:31:25.749Z,7.36
2018-01-14T12:32:26.322Z,7.31
2018-01-14T12:33:26.076Z,7.31
2018-01-14T12:34:26.105Z,7.31
2018-01-14T12:35:25.817Z,7.28
2018-01-14T12:36:26.093Z,7.35
2018-01-14T12:37:26.102Z,7.29
2018-01-14T12:38:26.399Z,7.24
2018-01-14T12:39:26.147Z,7.25
2018-01-14T12:40:26.126Z,7.28
2018-01-14T12:41:26.425Z,7.35
2018-01-14T12:42:25.906Z,7.33
2018-01-14T12:43:26.177Z,7.28
2018-01-14T12:44:25.895Z,7.29
2018-01-14T12:45:26.205Z,7.31
2018-01-14T12:46:26.516Z,7.36
2018-01-14T12:47:26.189Z,7.24
2018-01-14T12:48:26.224Z,7.35
2018-01-14T12:49:26.534Z,7.32
2018-01-14T12:50:26.252Z,7.36
2018-01-14T12:51:26.278Z,7.31
2018-01-14T12:52:26.279Z,7.31
2018-01-14T12:53:26.260Z,7.33
2018-01-14T12:54:26.332Z,7.38
2018-01-14T12:55:26.254Z,7.29
2018-01-14T12:56:26.072Z,7.32
2018-01-14T12:57:26.373Z,7.38
2018-01-14T12:58:26.359Z,7.31
2018-01-14T12:59:26.087Z,7.33
2018-01-14T13:00:26.394Z,7.39
2018-01-14T13:01:26.372Z,7.33
2018-01-14T13:02:26.377Z,7.38
2018-01-14T13:03:26.142Z,7.31
2018-01-14T13:04:26.141Z,7.29
2018-01-14T13:05:26.132Z,7.32
2018-01-14T13:06:26.442Z,7.28
2018-01-14T13:07:26.464Z,7.29
2018-01-14T13:08:26.481Z,7.18
2018-01-14T13:09:26.450Z,7.21
2018-01-14T13:10:26.478Z,7.17
2018-01-14T13:11:26.513Z,7.18
2018-01-14T13:12:26.531Z,7.18
2018-01-14T13:13:26.565Z,7.2
2018-01-14T13:14:26.777Z,7.15
2018-01-14T13:15:26.810Z,7.15
2018-01-14T13:16:26.283Z,7.21
2018-01-14T13:17:26.643Z,7.15
2018-01-14T13:18:26.290Z,7.2
2018-01-14T13:19:26.578Z,7.18
2018-01-14T13:20:26.627Z,7.15
2018-01-14T13:21:26.649Z,7.15